This is the latest recevied weather packets stored in our database for station/object IW1QQG-13. If no packets are shown the sender has not sent any weather packets the latest 10 day(s).
| Time | Temp. | Humidity | Pressure | Rain* | Wind** | Luminosity | Snow |
|---|---|---|---|---|---|---|---|
| 1776932771 | 17.22° C | 53% | 1023.7 hPa | 0 mm | - | - | - |
| 1776932171 | 17.78° C | 51% | 1023.7 hPa | 0 mm | - | - | - |
| 1776931571 | 17.78° C | 53% | 1023.7 hPa | 0 mm | - | - | - |
| 1776930971 | 17.78° C | 56% | 1023.7 hPa | 0 mm | - | - | - |
| 1776930371 | 17.22° C | 56% | 1023.7 hPa | 0 mm | - | - | - |
| 1776929771 | 17.22° C | 55% | 1023.7 hPa | 0 mm | - | - | - |
| 1776929171 | 17.22° C | 58% | 1023.7 hPa | 0 mm | - | - | - |
| 1776928571 | 17.22° C | 59% | 1023.4 hPa | 0 mm | - | 303 W/m² | - |
| 1776927971 | 17.22° C | 57% | 1023.4 hPa | 0 mm | - | 295 W/m² | - |
| 1776927371 | 16.67° C | 57% | 1023.4 hPa | 0 mm | - | 262 W/m² | - |
| 1776926771 | 16.67° C | 58% | 1023.4 hPa | 0 mm | - | 253 W/m² | - |
| 1776926171 | 16.67° C | 57% | 1023.4 hPa | 0 mm | - | 72 W/m² | - |
| 1776925571 | 16.11° C | 57% | 1023.4 hPa | 0 mm | - | 67 W/m² | - |
| 1776924971 | 15.56° C | 58% | 1023.4 hPa | 0 mm | - | 148 W/m² | - |
| 1776924371 | 15.56° C | 57% | 1023.4 hPa | 0 mm | - | 78 W/m² | - |
| 1776923771 | 15° C | 53% | 1023 hPa | 0 mm | - | 55 W/m² | - |
| 1776923171 | 14.44° C | 58% | 1023 hPa | 0 mm | - | 84 W/m² | - |
| 1776922571 | 13.89° C | 59% | 1023 hPa | 0 mm | - | 44 W/m² | - |
| 1776921971 | 13.33° C | 58% | 1022.7 hPa | 0 mm | - | 52 W/m² | - |
| 1776921371 | 11.11° C | 64% | 1022.7 hPa | 0 mm | - | 29 W/m² | - |
| 1776920771 | 11.67° C | 63% | 1022.7 hPa | 0 mm | - | 22 W/m² | - |
| 1776920171 | 11.67° C | 61% | 1022.7 hPa | 0 mm | - | 16 W/m² | - |
| 1776919571 | 11.67° C | 59% | 1022.4 hPa | 0 mm | - | 9 W/m² | - |
| 1776918971 | 11.67° C | 58% | 1022.4 hPa | 0 mm | - | 4 W/m² | - |
| 1776918371 | 12.22° C | 57% | 1022.4 hPa | 0 mm | - | 1 W/m² | - |
* Rain latest hour (hover to see other rain measurements)
** Current wind speed in m/s (hover to see current wind gust speed)